sensor_id;sensor_type;location;lat;lon;timestamp;P1;durP1;ratioP1;P2;durP2;ratioP2
15273;SDS011;7738;49.532;11.156;2023-01-30T00:01:03;17.73;;;12.13;;
15273;SDS011;7738;49.532;11.156;2023-01-30T00:03:35;23.50;;;11.37;;
15273;SDS011;7738;49.532;11.156;2023-01-30T00:06:07;19.53;;;10.33;;
15273;SDS011;7738;49.532;11.156;2023-01-30T00:08:38;20.03;;;11.30;;
15273;SDS011;7738;49.532;11.156;2023-01-30T00:11:09;23.67;;;12.03;;
15273;SDS011;7738;49.532;11.156;2023-01-30T00:13:41;20.23;;;10.60;;
15273;SDS011;7738;49.532;11.156;2023-01-30T00:16:11;18.67;;;11.43;;
15273;SDS011;7738;49.532;11.156;2023-01-30T00:18:41;24.67;;;11.87;;
15273;SDS011;7738;49.532;11.156;2023-01-30T00:21:15;21.10;;;12.27;;
15273;SDS011;7738;49.532;11.156;2023-01-30T00:23:45;17.87;;;11.90;;
15273;SDS011;7738;49.532;11.156;2023-01-30T00:26:15;18.77;;;10.17;;
15273;SDS011;7738;49.532;11.156;2023-01-30T00:28:45;26.23;;;11.97;;
15273;SDS011;7738;49.532;11.156;2023-01-30T00:31:15;19.90;;;12.33;;
15273;SDS011;7738;49.532;11.156;2023-01-30T00:33:45;26.53;;;12.23;;
15273;SDS011;7738;49.532;11.156;2023-01-30T00:36:18;25.23;;;11.97;;
15273;SDS011;7738;49.532;11.156;2023-01-30T00:38:48;20.73;;;10.47;;
15273;SDS011;7738;49.532;11.156;2023-01-30T00:41:18;19.77;;;11.40;;
15273;SDS011;7738;49.532;11.156;2023-01-30T00:43:48;18.73;;;10.87;;
15273;SDS011;7738;49.532;11.156;2023-01-30T00:46:31;17.20;;;9.87;;
15273;SDS011;7738;49.532;11.156;2023-01-30T00:49:14;23.70;;;12.00;;
15273;SDS011;7738;49.532;11.156;2023-01-30T00:51:47;21.00;;;11.07;;
15273;SDS011;7738;49.532;11.156;2023-01-30T00:54:17;22.23;;;11.80;;
15273;SDS011;7738;49.532;11.156;2023-01-30T00:56:47;20.27;;;12.07;;
15273;SDS011;7738;49.532;11.156;2023-01-30T00:59:17;20.60;;;12.63;;
15273;SDS011;7738;49.532;11.156;2023-01-30T01:01:47;23.10;;;13.37;;
15273;SDS011;7738;49.532;11.156;2023-01-30T01:04:17;21.13;;;11.73;;
15273;SDS011;7738;49.532;11.156;2023-01-30T01:06:50;21.93;;;11.47;;
15273;SDS011;7738;49.532;11.156;2023-01-30T01:09:20;24.83;;;12.87;;
15273;SDS011;7738;49.532;11.156;2023-01-30T01:11:51;27.97;;;13.73;;
15273;SDS011;7738;49.532;11.156;2023-01-30T01:14:21;24.60;;;13.90;;
15273;SDS011;7738;49.532;11.156;2023-01-30T01:16:51;28.17;;;13.50;;
15273;SDS011;7738;49.532;11.156;2023-01-30T01:19:21;24.90;;;14.13;;
15273;SDS011;7738;49.532;11.156;2023-01-30T01:21:54;29.10;;;14.10;;
15273;SDS011;7738;49.532;11.156;2023-01-30T01:24:25;24.83;;;14.13;;
15273;SDS011;7738;49.532;11.156;2023-01-30T01:26:56;29.47;;;15.03;;
15273;SDS011;7738;49.532;11.156;2023-01-30T01:29:26;23.57;;;13.27;;
15273;SDS011;7738;49.532;11.156;2023-01-30T01:31:56;28.50;;;13.73;;
15273;SDS011;7738;49.532;11.156;2023-01-30T01:34:26;29.70;;;14.40;;
15273;SDS011;7738;49.532;11.156;2023-01-30T01:36:59;25.53;;;14.17;;
15273;SDS011;7738;49.532;11.156;2023-01-30T01:39:29;25.13;;;13.73;;
15273;SDS011;7738;49.532;11.156;2023-01-30T01:42:11;23.23;;;12.77;;
15273;SDS011;7738;49.532;11.156;2023-01-30T01:47:39;23.00;;;12.70;;
15273;SDS011;7738;49.532;11.156;2023-01-30T01:50:18;27.95;;;14.88;;
15273;SDS011;7738;49.532;11.156;2023-01-30T01:52:56;25.27;;;14.13;;
15273;SDS011;7738;49.532;11.156;2023-01-30T01:55:27;31.02;;;13.48;;
15273;SDS011;7738;49.532;11.156;2023-01-30T01:57:59;23.93;;;12.37;;
15273;SDS011;7738;49.532;11.156;2023-01-30T02:00:33;22.87;;;12.37;;
15273;SDS011;7738;49.532;11.156;2023-01-30T02:03:05;24.87;;;13.20;;
15273;SDS011;7738;49.532;11.156;2023-01-30T02:05:37;25.93;;;14.37;;
15273;SDS011;7738;49.532;11.156;2023-01-30T02:10:46;31.87;;;14.63;;
15273;SDS011;7738;49.532;11.156;2023-01-30T02:13:21;26.00;;;14.30;;
15273;SDS011;7738;49.532;11.156;2023-01-30T02:15:54;22.27;;;11.83;;
15273;SDS011;7738;49.532;11.156;2023-01-30T02:18:25;25.10;;;12.83;;
15273;SDS011;7738;49.532;11.156;2023-01-30T02:21:06;28.90;;;14.07;;
15273;SDS011;7738;49.532;11.156;2023-01-30T02:24:08;28.27;;;13.67;;
15273;SDS011;7738;49.532;11.156;2023-01-30T02:26:59;27.10;;;13.87;;
15273;SDS011;7738;49.532;11.156;2023-01-30T02:29:53;21.27;;;11.90;;
15273;SDS011;7738;49.532;11.156;2023-01-30T02:33:02;27.83;;;14.30;;
15273;SDS011;7738;49.532;11.156;2023-01-30T02:35:45;29.67;;;12.57;;
15273;SDS011;7738;49.532;11.156;2023-01-30T02:38:25;21.27;;;11.57;;
15273;SDS011;7738;49.532;11.156;2023-01-30T02:41:06;25.83;;;11.93;;
15273;SDS011;7738;49.532;11.156;2023-01-30T02:43:49;29.63;;;15.23;;
15273;SDS011;7738;49.532;11.156;2023-01-30T02:46:30;24.03;;;13.40;;
15273;SDS011;7738;49.532;11.156;2023-01-30T02:49:08;25.83;;;12.77;;
15273;SDS011;7738;49.532;11.156;2023-01-30T02:51:42;27.33;;;14.90;;
15273;SDS011;7738;49.532;11.156;2023-01-30T02:54:14;27.77;;;13.33;;
15273;SDS011;7738;49.532;11.156;2023-01-30T02:56:45;23.80;;;13.63;;
15273;SDS011;7738;49.532;11.156;2023-01-30T02:59:22;21.30;;;10.77;;
15273;SDS011;7738;49.532;11.156;2023-01-30T03:05:00;20.10;;;11.90;;
15273;SDS011;7738;49.532;11.156;2023-01-30T03:07:54;21.47;;;11.40;;
15273;SDS011;7738;49.532;11.156;2023-01-30T03:10:33;22.50;;;11.00;;
15273;SDS011;7738;49.532;11.156;2023-01-30T03:13:09;20.30;;;11.17;;
15273;SDS011;7738;49.532;11.156;2023-01-30T03:15:44;19.80;;;12.30;;
15273;SDS011;7738;49.532;11.156;2023-01-30T03:18:18;24.53;;;11.53;;
15273;SDS011;7738;49.532;11.156;2023-01-30T03:20:52;18.90;;;10.93;;
15273;SDS011;7738;49.532;11.156;2023-01-30T03:23:23;19.57;;;10.27;;
15273;SDS011;7738;49.532;11.156;2023-01-30T03:25:52;20.83;;;10.07;;
15273;SDS011;7738;49.532;11.156;2023-01-30T03:28:23;21.90;;;11.17;;
15273;SDS011;7738;49.532;11.156;2023-01-30T03:30:54;20.87;;;11.20;;
15273;SDS011;7738;49.532;11.156;2023-01-30T03:33:24;26.37;;;12.67;;
15273;SDS011;7738;49.532;11.156;2023-01-30T03:35:56;16.93;;;9.30;;
15273;SDS011;7738;49.532;11.156;2023-01-30T03:38:26;22.33;;;11.97;;
15273;SDS011;7738;49.532;11.156;2023-01-30T03:40:57;20.00;;;10.30;;
15273;SDS011;7738;49.532;11.156;2023-01-30T03:43:27;17.87;;;10.83;;
15273;SDS011;7738;49.532;11.156;2023-01-30T03:45:57;18.13;;;9.63;;
15273;SDS011;7738;49.532;11.156;2023-01-30T03:48:27;16.53;;;9.53;;
15273;SDS011;7738;49.532;11.156;2023-01-30T03:51:00;16.47;;;11.10;;
15273;SDS011;7738;49.532;11.156;2023-01-30T03:53:30;20.67;;;10.97;;
15273;SDS011;7738;49.532;11.156;2023-01-30T03:56:00;19.23;;;11.93;;
15273;SDS011;7738;49.532;11.156;2023-01-30T03:58:32;24.73;;;12.40;;
15273;SDS011;7738;49.532;11.156;2023-01-30T04:01:14;16.23;;;9.03;;
15273;SDS011;7738;49.532;11.156;2023-01-30T04:03:45;18.17;;;9.17;;
15273;SDS011;7738;49.532;11.156;2023-01-30T04:06:18;17.70;;;9.63;;
15273;SDS011;7738;49.532;11.156;2023-01-30T04:08:50;18.73;;;10.43;;
15273;SDS011;7738;49.532;11.156;2023-01-30T04:11:32;18.90;;;10.57;;
15273;SDS011;7738;49.532;11.156;2023-01-30T04:14:02;13.47;;;7.73;;
15273;SDS011;7738;49.532;11.156;2023-01-30T04:16:41;15.47;;;10.17;;
15273;SDS011;7738;49.532;11.156;2023-01-30T04:19:30;16.33;;;9.33;;
15273;SDS011;7738;49.532;11.156;2023-01-30T04:22:03;21.73;;;10.27;;
15273;SDS011;7738;49.532;11.156;2023-01-30T04:24:34;17.85;;;10.02;;
15273;SDS011;7738;49.532;11.156;2023-01-30T04:27:04;16.20;;;9.70;;
15273;SDS011;7738;49.532;11.156;2023-01-30T04:29:41;17.07;;;9.27;;
15273;SDS011;7738;49.532;11.156;2023-01-30T04:32:12;19.03;;;9.33;;
15273;SDS011;7738;49.532;11.156;2023-01-30T04:34:42;18.70;;;10.30;;
15273;SDS011;7738;49.532;11.156;2023-01-30T04:37:15;16.07;;;8.93;;
15273;SDS011;7738;49.532;11.156;2023-01-30T04:39:46;18.90;;;9.60;;
15273;SDS011;7738;49.532;11.156;2023-01-30T04:42:16;15.90;;;9.03;;
15273;SDS011;7738;49.532;11.156;2023-01-30T04:45:07;14.07;;;9.13;;
15273;SDS011;7738;49.532;11.156;2023-01-30T04:47:38;20.70;;;11.47;;
15273;SDS011;7738;49.532;11.156;2023-01-30T04:50:09;17.23;;;10.00;;
15273;SDS011;7738;49.532;11.156;2023-01-30T04:52:43;18.10;;;9.03;;
15273;SDS011;7738;49.532;11.156;2023-01-30T04:55:12;17.40;;;10.10;;
15273;SDS011;7738;49.532;11.156;2023-01-30T04:57:43;18.57;;;10.87;;
15273;SDS011;7738;49.532;11.156;2023-01-30T05:00:14;16.67;;;9.07;;
15273;SDS011;7738;49.532;11.156;2023-01-30T05:02:50;19.37;;;9.53;;
15273;SDS011;7738;49.532;11.156;2023-01-30T05:05:21;19.03;;;10.50;;
15273;SDS011;7738;49.532;11.156;2023-01-30T05:07:54;16.07;;;9.20;;
15273;SDS011;7738;49.532;11.156;2023-01-30T05:10:25;17.13;;;9.03;;
15273;SDS011;7738;49.532;11.156;2023-01-30T05:12:55;19.77;;;10.87;;
15273;SDS011;7738;49.532;11.156;2023-01-30T05:15:25;19.20;;;9.67;;
15273;SDS011;7738;49.532;11.156;2023-01-30T05:17:56;16.97;;;10.30;;
15273;SDS011;7738;49.532;11.156;2023-01-30T05:20:26;15.43;;;8.43;;
15273;SDS011;7738;49.532;11.156;2023-01-30T05:22:59;19.67;;;10.07;;
15273;SDS011;7738;49.532;11.156;2023-01-30T05:25:29;18.43;;;9.00;;
15273;SDS011;7738;49.532;11.156;2023-01-30T05:28:00;14.80;;;8.63;;
15273;SDS011;7738;49.532;11.156;2023-01-30T05:30:30;14.27;;;8.43;;
15273;SDS011;7738;49.532;11.156;2023-01-30T05:33:00;17.83;;;8.87;;
15273;SDS011;7738;49.532;11.156;2023-01-30T05:35:30;18.83;;;9.20;;
15273;SDS011;7738;49.532;11.156;2023-01-30T05:38:03;16.20;;;9.73;;
15273;SDS011;7738;49.532;11.156;2023-01-30T05:40:34;17.73;;;9.27;;
15273;SDS011;7738;49.532;11.156;2023-01-30T05:43:04;17.43;;;10.73;;
15273;SDS011;7738;49.532;11.156;2023-01-30T05:45:35;17.80;;;9.57;;
15273;SDS011;7738;49.532;11.156;2023-01-30T05:48:05;15.70;;;8.63;;
15273;SDS011;7738;49.532;11.156;2023-01-30T05:50:35;20.17;;;9.13;;
15273;SDS011;7738;49.532;11.156;2023-01-30T05:53:08;19.43;;;10.20;;
15273;SDS011;7738;49.532;11.156;2023-01-30T05:55:39;19.57;;;11.43;;
15273;SDS011;7738;49.532;11.156;2023-01-30T05:58:09;18.20;;;10.47;;
15273;SDS011;7738;49.532;11.156;2023-01-30T06:00:40;16.17;;;9.40;;
15273;SDS011;7738;49.532;11.156;2023-01-30T06:03:10;21.03;;;11.00;;
15273;SDS011;7738;49.532;11.156;2023-01-30T06:05:40;20.30;;;10.13;;
15273;SDS011;7738;49.532;11.156;2023-01-30T06:08:13;20.27;;;9.97;;
15273;SDS011;7738;49.532;11.156;2023-01-30T06:10:43;18.47;;;9.73;;
15273;SDS011;7738;49.532;11.156;2023-01-30T06:13:13;18.90;;;9.73;;
15273;SDS011;7738;49.532;11.156;2023-01-30T06:15:44;17.57;;;9.73;;
15273;SDS011;7738;49.532;11.156;2023-01-30T06:18:14;20.37;;;10.80;;
15273;SDS011;7738;49.532;11.156;2023-01-30T06:20:45;20.80;;;11.87;;
15273;SDS011;7738;49.532;11.156;2023-01-30T06:23:19;18.30;;;10.70;;
15273;SDS011;7738;49.532;11.156;2023-01-30T06:25:49;18.63;;;10.57;;
15273;SDS011;7738;49.532;11.156;2023-01-30T06:28:21;21.47;;;11.23;;
15273;SDS011;7738;49.532;11.156;2023-01-30T06:30:52;20.97;;;11.43;;
15273;SDS011;7738;49.532;11.156;2023-01-30T06:33:22;19.10;;;10.73;;
15273;SDS011;7738;49.532;11.156;2023-01-30T06:35:53;22.00;;;12.03;;
15273;SDS011;7738;49.532;11.156;2023-01-30T06:38:28;21.03;;;11.73;;
15273;SDS011;7738;49.532;11.156;2023-01-30T06:40:59;18.77;;;10.57;;
15273;SDS011;7738;49.532;11.156;2023-01-30T06:43:29;23.00;;;11.57;;
15273;SDS011;7738;49.532;11.156;2023-01-30T06:45:59;21.67;;;12.57;;
15273;SDS011;7738;49.532;11.156;2023-01-30T06:48:30;20.57;;;10.87;;
15273;SDS011;7738;49.532;11.156;2023-01-30T06:51:00;24.27;;;12.53;;
15273;SDS011;7738;49.532;11.156;2023-01-30T06:53:33;23.57;;;11.37;;
15273;SDS011;7738;49.532;11.156;2023-01-30T06:56:03;21.33;;;11.53;;
15273;SDS011;7738;49.532;11.156;2023-01-30T06:58:34;17.67;;;11.03;;
15273;SDS011;7738;49.532;11.156;2023-01-30T07:01:04;21.00;;;11.70;;
15273;SDS011;7738;49.532;11.156;2023-01-30T07:03:35;21.67;;;10.93;;
15273;SDS011;7738;49.532;11.156;2023-01-30T07:06:05;19.17;;;9.73;;
15273;SDS011;7738;49.532;11.156;2023-01-30T07:08:38;18.80;;;10.47;;
15273;SDS011;7738;49.532;11.156;2023-01-30T07:11:09;16.58;;;10.00;;
15273;SDS011;7738;49.532;11.156;2023-01-30T07:13:40;18.90;;;10.17;;
15273;SDS011;7738;49.532;11.156;2023-01-30T07:16:10;17.77;;;10.97;;
15273;SDS011;7738;49.532;11.156;2023-01-30T07:18:40;19.70;;;9.60;;
15273;SDS011;7738;49.532;11.156;2023-01-30T07:21:10;17.60;;;10.47;;
15273;SDS011;7738;49.532;11.156;2023-01-30T07:23:45;17.97;;;9.53;;
15273;SDS011;7738;49.532;11.156;2023-01-30T07:26:15;19.55;;;11.77;;
15273;SDS011;7738;49.532;11.156;2023-01-30T07:28:45;17.03;;;9.73;;
15273;SDS011;7738;49.532;11.156;2023-01-30T07:31:15;20.90;;;11.00;;
15273;SDS011;7738;49.532;11.156;2023-01-30T07:33:46;15.33;;;8.97;;
15273;SDS011;7738;49.532;11.156;2023-01-30T07:36:16;19.03;;;10.13;;
15273;SDS011;7738;49.532;11.156;2023-01-30T07:38:49;16.77;;;9.47;;
15273;SDS011;7738;49.532;11.156;2023-01-30T07:41:19;16.77;;;9.53;;
15273;SDS011;7738;49.532;11.156;2023-01-30T07:43:49;14.13;;;9.10;;
15273;SDS011;7738;49.532;11.156;2023-01-30T07:46:20;16.67;;;8.83;;
15273;SDS011;7738;49.532;11.156;2023-01-30T07:48:50;16.07;;;9.60;;
15273;SDS011;7738;49.532;11.156;2023-01-30T07:51:20;15.50;;;8.97;;
15273;SDS011;7738;49.532;11.156;2023-01-30T07:53:53;12.97;;;7.60;;
15273;SDS011;7738;49.532;11.156;2023-01-30T07:56:23;14.17;;;9.03;;
15273;SDS011;7738;49.532;11.156;2023-01-30T07:58:54;15.30;;;8.30;;
15273;SDS011;7738;49.532;11.156;2023-01-30T08:01:24;16.83;;;9.07;;
15273;SDS011;7738;49.532;11.156;2023-01-30T08:03:55;14.27;;;8.87;;
15273;SDS011;7738;49.532;11.156;2023-01-30T08:06:25;11.03;;;6.47;;
15273;SDS011;7738;49.532;11.156;2023-01-30T08:08:58;11.93;;;7.50;;
15273;SDS011;7738;49.532;11.156;2023-01-30T08:11:28;11.90;;;7.33;;
15273;SDS011;7738;49.532;11.156;2023-01-30T08:13:58;13.53;;;7.90;;
15273;SDS011;7738;49.532;11.156;2023-01-30T08:16:29;14.27;;;8.37;;
15273;SDS011;7738;49.532;11.156;2023-01-30T08:19:00;14.90;;;7.97;;
15273;SDS011;7738;49.532;11.156;2023-01-30T08:21:30;15.83;;;7.77;;
15273;SDS011;7738;49.532;11.156;2023-01-30T08:24:03;43.77;;;19.37;;
15273;SDS011;7738;49.532;11.156;2023-01-30T08:26:33;16.70;;;11.23;;
15273;SDS011;7738;49.532;11.156;2023-01-30T08:29:04;28.83;;;17.90;;
15273;SDS011;7738;49.532;11.156;2023-01-30T08:31:34;15.17;;;10.43;;
15273;SDS011;7738;49.532;11.156;2023-01-30T08:34:04;11.37;;;7.23;;
15273;SDS011;7738;49.532;11.156;2023-01-30T08:36:35;12.90;;;7.03;;
15273;SDS011;7738;49.532;11.156;2023-01-30T08:39:08;12.07;;;5.80;;
15273;SDS011;7738;49.532;11.156;2023-01-30T08:41:38;11.90;;;6.37;;
15273;SDS011;7738;49.532;11.156;2023-01-30T08:44:09;18.70;;;14.40;;
15273;SDS011;7738;49.532;11.156;2023-01-30T08:46:39;17.77;;;12.10;;
15273;SDS011;7738;49.532;11.156;2023-01-30T08:49:09;10.63;;;7.27;;
15273;SDS011;7738;49.532;11.156;2023-01-30T08:51:40;13.63;;;10.87;;
15273;SDS011;7738;49.532;11.156;2023-01-30T08:54:12;13.33;;;9.77;;
15273;SDS011;7738;49.532;11.156;2023-01-30T08:56:43;10.70;;;7.63;;
15273;SDS011;7738;49.532;11.156;2023-01-30T08:59:13;8.83;;;6.17;;
15273;SDS011;7738;49.532;11.156;2023-01-30T09:01:43;13.90;;;8.40;;
15273;SDS011;7738;49.532;11.156;2023-01-30T09:04:14;8.30;;;6.43;;
15273;SDS011;7738;49.532;11.156;2023-01-30T09:06:44;11.30;;;8.00;;
15273;SDS011;7738;49.532;11.156;2023-01-30T09:09:17;13.17;;;9.73;;
15273;SDS011;7738;49.532;11.156;2023-01-30T09:11:47;13.23;;;8.27;;
15273;SDS011;7738;49.532;11.156;2023-01-30T09:14:17;16.90;;;10.20;;
15273;SDS011;7738;49.532;11.156;2023-01-30T09:16:48;14.47;;;8.77;;
15273;SDS011;7738;49.532;11.156;2023-01-30T09:19:21;21.03;;;12.27;;
15273;SDS011;7738;49.532;11.156;2023-01-30T09:21:51;14.00;;;9.77;;
15273;SDS011;7738;49.532;11.156;2023-01-30T09:24:25;17.23;;;11.03;;
15273;SDS011;7738;49.532;11.156;2023-01-30T09:26:55;12.40;;;8.13;;
15273;SDS011;7738;49.532;11.156;2023-01-30T09:29:26;16.17;;;8.70;;
15273;SDS011;7738;49.532;11.156;2023-01-30T09:31:57;15.73;;;8.67;;
15273;SDS011;7738;49.532;11.156;2023-01-30T09:34:27;12.47;;;6.43;;
15273;SDS011;7738;49.532;11.156;2023-01-30T09:36:57;15.30;;;8.90;;
15273;SDS011;7738;49.532;11.156;2023-01-30T09:39:33;14.17;;;7.50;;
15273;SDS011;7738;49.532;11.156;2023-01-30T09:42:10;13.27;;;7.27;;
15273;SDS011;7738;49.532;11.156;2023-01-30T09:48:01;12.83;;;7.63;;
15273;SDS011;7738;49.532;11.156;2023-01-30T09:50:46;21.55;;;12.02;;
15273;SDS011;7738;49.532;11.156;2023-01-30T09:53:33;14.63;;;8.30;;
15273;SDS011;7738;49.532;11.156;2023-01-30T09:56:14;15.67;;;8.60;;
15273;SDS011;7738;49.532;11.156;2023-01-30T09:58:45;14.37;;;8.33;;
15273;SDS011;7738;49.532;11.156;2023-01-30T10:01:20;12.70;;;7.50;;
15273;SDS011;7738;49.532;11.156;2023-01-30T10:04:07;16.70;;;7.80;;
15273;SDS011;7738;49.532;11.156;2023-01-30T10:06:44;13.83;;;7.97;;
15273;SDS011;7738;49.532;11.156;2023-01-30T10:09:25;11.63;;;7.23;;
15273;SDS011;7738;49.532;11.156;2023-01-30T10:12:09;14.37;;;7.60;;
15273;SDS011;7738;49.532;11.156;2023-01-30T10:15:00;12.67;;;8.07;;
15273;SDS011;7738;49.532;11.156;2023-01-30T10:17:49;12.17;;;7.17;;
15273;SDS011;7738;49.532;11.156;2023-01-30T10:20:34;9.90;;;6.73;;
15273;SDS011;7738;49.532;11.156;2023-01-30T10:26:10;10.53;;;6.33;;
15273;SDS011;7738;49.532;11.156;2023-01-30T10:28:50;10.23;;;5.70;;
15273;SDS011;7738;49.532;11.156;2023-01-30T10:31:34;11.07;;;6.47;;
15273;SDS011;7738;49.532;11.156;2023-01-30T10:34:10;11.23;;;7.00;;
15273;SDS011;7738;49.532;11.156;2023-01-30T10:36:46;11.17;;;5.30;;
15273;SDS011;7738;49.532;11.156;2023-01-30T10:39:22;10.83;;;6.60;;
15273;SDS011;7738;49.532;11.156;2023-01-30T10:41:58;7.93;;;5.03;;
15273;SDS011;7738;49.532;11.156;2023-01-30T10:44:35;7.93;;;5.50;;
15273;SDS011;7738;49.532;11.156;2023-01-30T10:47:11;10.27;;;6.13;;
15273;SDS011;7738;49.532;11.156;2023-01-30T10:50:01;8.37;;;4.67;;
15273;SDS011;7738;49.532;11.156;2023-01-30T10:52:44;6.10;;;3.73;;
15273;SDS011;7738;49.532;11.156;2023-01-30T10:55:24;5.90;;;3.90;;
15273;SDS011;7738;49.532;11.156;2023-01-30T10:58:05;8.67;;;4.03;;
15273;SDS011;7738;49.532;11.156;2023-01-30T11:00:47;6.03;;;4.53;;
15273;SDS011;7738;49.532;11.156;2023-01-30T11:03:27;5.00;;;3.30;;
15273;SDS011;7738;49.532;11.156;2023-01-30T11:06:04;6.00;;;4.07;;
15273;SDS011;7738;49.532;11.156;2023-01-30T11:08:36;5.17;;;3.53;;
15273;SDS011;7738;49.532;11.156;2023-01-30T11:11:19;5.87;;;3.37;;
15273;SDS011;7738;49.532;11.156;2023-01-30T11:14:01;4.27;;;3.00;;
15273;SDS011;7738;49.532;11.156;2023-01-30T11:16:40;6.57;;;3.97;;
15273;SDS011;7738;49.532;11.156;2023-01-30T11:19:15;5.73;;;3.90;;
15273;SDS011;7738;49.532;11.156;2023-01-30T11:21:48;5.32;;;3.40;;
15273;SDS011;7738;49.532;11.156;2023-01-30T11:24:21;4.73;;;3.47;;
15273;SDS011;7738;49.532;11.156;2023-01-30T11:26:58;4.33;;;3.53;;
15273;SDS011;7738;49.532;11.156;2023-01-30T11:29:38;6.67;;;3.33;;
15273;SDS011;7738;49.532;11.156;2023-01-30T11:32:13;4.53;;;3.43;;
15273;SDS011;7738;49.532;11.156;2023-01-30T11:34:59;7.23;;;4.00;;
15273;SDS011;7738;49.532;11.156;2023-01-30T11:37:40;6.30;;;3.73;;
15273;SDS011;7738;49.532;11.156;2023-01-30T11:40:18;5.97;;;4.33;;
15273;SDS011;7738;49.532;11.156;2023-01-30T11:42:57;5.60;;;3.87;;
15273;SDS011;7738;49.532;11.156;2023-01-30T11:45:34;7.10;;;4.10;;
15273;SDS011;7738;49.532;11.156;2023-01-30T11:48:12;5.17;;;3.40;;
15273;SDS011;7738;49.532;11.156;2023-01-30T11:51:05;6.00;;;3.87;;
15273;SDS011;7738;49.532;11.156;2023-01-30T11:53:38;4.97;;;3.70;;
15273;SDS011;7738;49.532;11.156;2023-01-30T11:56:13;5.03;;;3.47;;
15273;SDS011;7738;49.532;11.156;2023-01-30T11:58:46;6.97;;;4.57;;
15273;SDS011;7738;49.532;11.156;2023-01-30T12:01:25;8.00;;;3.50;;
15273;SDS011;7738;49.532;11.156;2023-01-30T12:03:59;6.90;;;4.80;;
15273;SDS011;7738;49.532;11.156;2023-01-30T12:06:30;4.90;;;4.10;;
15273;SDS011;7738;49.532;11.156;2023-01-30T12:09:02;6.47;;;3.93;;
15273;SDS011;7738;49.532;11.156;2023-01-30T12:11:43;7.47;;;3.73;;
15273;SDS011;7738;49.532;11.156;2023-01-30T12:17:09;6.57;;;4.57;;
15273;SDS011;7738;49.532;11.156;2023-01-30T12:19:53;7.50;;;4.50;;
15273;SDS011;7738;49.532;11.156;2023-01-30T12:22:31;5.17;;;3.63;;
15273;SDS011;7738;49.532;11.156;2023-01-30T12:25:08;7.50;;;4.47;;
15273;SDS011;7738;49.532;11.156;2023-01-30T12:27:47;6.47;;;4.17;;
15273;SDS011;7738;49.532;11.156;2023-01-30T12:30:25;6.63;;;4.10;;
15273;SDS011;7738;49.532;11.156;2023-01-30T12:33:02;7.33;;;4.83;;
15273;SDS011;7738;49.532;11.156;2023-01-30T12:35:46;15.20;;;10.03;;
15273;SDS011;7738;49.532;11.156;2023-01-30T12:38:30;7.37;;;5.43;;
15273;SDS011;7738;49.532;11.156;2023-01-30T12:41:14;10.40;;;4.80;;
15273;SDS011;7738;49.532;11.156;2023-01-30T12:43:56;7.23;;;5.20;;
15273;SDS011;7738;49.532;11.156;2023-01-30T12:46:50;8.03;;;6.63;;
15273;SDS011;7738;49.532;11.156;2023-01-30T12:49:30;7.13;;;4.70;;
15273;SDS011;7738;49.532;11.156;2023-01-30T12:52:21;7.87;;;5.77;;
15273;SDS011;7738;49.532;11.156;2023-01-30T12:55:14;7.63;;;4.83;;
15273;SDS011;7738;49.532;11.156;2023-01-30T12:57:52;5.83;;;4.37;;
15273;SDS011;7738;49.532;11.156;2023-01-30T13:00:30;7.53;;;4.23;;
15273;SDS011;7738;49.532;11.156;2023-01-30T13:03:21;8.17;;;5.43;;
15273;SDS011;7738;49.532;11.156;2023-01-30T13:05:59;8.40;;;6.70;;
15273;SDS011;7738;49.532;11.156;2023-01-30T13:08:44;9.10;;;7.53;;
15273;SDS011;7738;49.532;11.156;2023-01-30T13:11:39;9.17;;;6.17;;
15273;SDS011;7738;49.532;11.156;2023-01-30T13:14:18;10.90;;;9.13;;
15273;SDS011;7738;49.532;11.156;2023-01-30T13:16:58;10.90;;;8.40;;
15273;SDS011;7738;49.532;11.156;2023-01-30T13:19:47;16.57;;;13.20;;
15273;SDS011;7738;49.532;11.156;2023-01-30T13:22:27;8.73;;;5.60;;
15273;SDS011;7738;49.532;11.156;2023-01-30T13:25:11;11.53;;;8.67;;
15273;SDS011;7738;49.532;11.156;2023-01-30T13:27:52;8.03;;;6.50;;
15273;SDS011;7738;49.532;11.156;2023-01-30T13:30:24;9.63;;;5.47;;
15273;SDS011;7738;49.532;11.156;2023-01-30T13:32:56;7.63;;;6.17;;
15273;SDS011;7738;49.532;11.156;2023-01-30T13:35:30;13.23;;;9.10;;
15273;SDS011;7738;49.532;11.156;2023-01-30T13:38:03;14.45;;;10.98;;
15273;SDS011;7738;49.532;11.156;2023-01-30T13:40:39;11.23;;;7.13;;
15273;SDS011;7738;49.532;11.156;2023-01-30T13:43:13;18.03;;;12.73;;
15273;SDS011;7738;49.532;11.156;2023-01-30T13:45:47;9.73;;;7.33;;
15273;SDS011;7738;49.532;11.156;2023-01-30T13:48:24;5.30;;;4.27;;
15273;SDS011;7738;49.532;11.156;2023-01-30T13:51:11;11.60;;;8.43;;
15273;SDS011;7738;49.532;11.156;2023-01-30T13:53:51;10.90;;;9.20;;
15273;SDS011;7738;49.532;11.156;2023-01-30T13:56:33;14.37;;;10.37;;
15273;SDS011;7738;49.532;11.156;2023-01-30T13:59:10;8.43;;;5.40;;
15273;SDS011;7738;49.532;11.156;2023-01-30T14:04:49;5.17;;;4.20;;
15273;SDS011;7738;49.532;11.156;2023-01-30T14:07:22;6.20;;;4.40;;
15273;SDS011;7738;49.532;11.156;2023-01-30T14:10:03;5.23;;;4.20;;
15273;SDS011;7738;49.532;11.156;2023-01-30T14:12:45;6.73;;;4.70;;
15273;SDS011;7738;49.532;11.156;2023-01-30T14:15:20;5.80;;;4.70;;
15273;SDS011;7738;49.532;11.156;2023-01-30T14:17:58;5.97;;;4.30;;
15273;SDS011;7738;49.532;11.156;2023-01-30T14:20:32;7.37;;;5.07;;
15273;SDS011;7738;49.532;11.156;2023-01-30T14:23:03;7.07;;;5.97;;
15273;SDS011;7738;49.532;11.156;2023-01-30T14:25:48;9.55;;;5.97;;
15273;SDS011;7738;49.532;11.156;2023-01-30T14:37:29;9.33;;;6.60;;
15273;SDS011;7738;49.532;11.156;2023-01-30T14:40:34;8.67;;;6.50;;
15273;SDS011;7738;49.532;11.156;2023-01-30T14:46:37;9.83;;;6.27;;
15273;SDS011;7738;49.532;11.156;2023-01-30T14:49:30;7.20;;;4.75;;
15273;SDS011;7738;49.532;11.156;2023-01-30T14:52:01;13.00;;;6.43;;
15273;SDS011;7738;49.532;11.156;2023-01-30T14:54:38;8.33;;;5.90;;
15273;SDS011;7738;49.532;11.156;2023-01-30T14:57:18;7.55;;;5.90;;
15273;SDS011;7738;49.532;11.156;2023-01-30T14:59:53;5.47;;;4.13;;
15273;SDS011;7738;49.532;11.156;2023-01-30T15:02:46;7.43;;;5.00;;
15273;SDS011;7738;49.532;11.156;2023-01-30T15:05:20;6.10;;;4.37;;
15273;SDS011;7738;49.532;11.156;2023-01-30T15:07:57;6.27;;;4.27;;
15273;SDS011;7738;49.532;11.156;2023-01-30T15:10:48;8.50;;;4.60;;
15273;SDS011;7738;49.532;11.156;2023-01-30T15:13:30;6.93;;;5.33;;
15273;SDS011;7738;49.532;11.156;2023-01-30T15:19:13;6.00;;;3.87;;
15273;SDS011;7738;49.532;11.156;2023-01-30T15:22:02;5.93;;;4.03;;
15273;SDS011;7738;49.532;11.156;2023-01-30T15:24:48;5.93;;;3.50;;
15273;SDS011;7738;49.532;11.156;2023-01-30T15:27:46;4.97;;;4.23;;
15273;SDS011;7738;49.532;11.156;2023-01-30T15:30:28;5.50;;;3.87;;
15273;SDS011;7738;49.532;11.156;2023-01-30T15:33:14;4.23;;;3.07;;
15273;SDS011;7738;49.532;11.156;2023-01-30T15:35:59;4.67;;;3.20;;
15273;SDS011;7738;49.532;11.156;2023-01-30T15:38:50;3.53;;;3.03;;
15273;SDS011;7738;49.532;11.156;2023-01-30T15:41:25;5.13;;;3.87;;
15273;SDS011;7738;49.532;11.156;2023-01-30T15:49:54;7.33;;;3.60;;
15273;SDS011;7738;49.532;11.156;2023-01-30T15:52:33;4.85;;;3.65;;
15273;SDS011;7738;49.532;11.156;2023-01-30T15:55:14;4.53;;;3.33;;
15273;SDS011;7738;49.532;11.156;2023-01-30T15:57:47;8.57;;;4.60;;
15273;SDS011;7738;49.532;11.156;2023-01-30T16:00:26;5.00;;;3.40;;
15273;SDS011;7738;49.532;11.156;2023-01-30T16:03:02;5.17;;;4.23;;